Time;durP1;ratioP1;P1;durP2;ratioP2;P2;SDS_P1;SDS_P2;PMS_P1;PMS_P2;Temp;Humidity;BMP_temperature;BMP_pressure;BME280_temperature;BME280_humidity;BME280_pressure;Samples;Min_cycle;Max_cycle;Signal;HPM_P1;HPM_P2
2023/02/12 00:01:13;;;;;;;87.70;25.08;;;;;;;;;;5071780;28;20226;-68
2023/02/12 00:03:40;;;;;;;88.20;24.90;;;;;;;;;;5071698;28;20224;-68
2023/02/12 00:06:07;;;;;;;89.03;26.80;;;;;;;;;;5071919;28;20204;-68
2023/02/12 00:08:35;;;;;;;89.13;25.48;;;;;;;;;;5071665;28;20211;-68
2023/02/12 00:11:07;;;;;;;89.85;24.67;;;;;;;;;;5071905;28;20593;-69
2023/02/12 00:13:34;;;;;;;95.95;24.55;;;;;;;;;;5071785;28;20205;-68
2023/02/12 00:16:04;;;;;;;83.30;23.58;;;;;;;;;;5071639;28;20205;-68
2023/02/12 00:18:32;;;;;;;85.43;23.40;;;;;;;;;;5071746;28;20578;-68
2023/02/12 00:21:00;;;;;;;84.20;23.13;;;;;;;;;;5071710;28;20232;-68
2023/02/12 00:23:27;;;;;;;86.60;22.67;;;;;;;;;;5071797;28;20221;-68
2023/02/12 00:25:54;;;;;;;87.03;23.17;;;;;;;;;;5071872;28;20451;-68
2023/02/12 00:28:21;;;;;;;88.07;25.58;;;;;;;;;;5072060;28;20208;-68
2023/02/12 00:30:49;;;;;;;93.03;25.15;;;;;;;;;;5071909;28;20201;-69
2023/02/12 00:33:16;;;;;;;92.53;25.50;;;;;;;;;;5072473;28;20207;-69
2023/02/12 00:35:44;;;;;;;90.15;25.40;;;;;;;;;;5072528;28;20471;-69
2023/02/12 00:38:11;;;;;;;97.55;27.88;;;;;;;;;;5072684;28;20211;-69
2023/02/12 00:40:38;;;;;;;95.47;28.27;;;;;;;;;;5072281;28;20262;-69
2023/02/12 00:43:05;;;;;;;99.05;29.00;;;;;;;;;;5072372;28;20205;-69
2023/02/12 00:45:33;;;;;;;100.72;28.15;;;;;;;;;;5072238;28;20229;-69
2023/02/12 00:48:00;;;;;;;108.18;31.50;;;;;;;;;;5073129;28;20694;-68
2023/02/12 00:50:27;;;;;;;94.88;28.23;;;;;;;;;;5076141;28;20197;-69
2023/02/12 00:52:55;;;;;;;87.15;25.13;;;;;;;;;;5075717;28;20205;-69
2023/02/12 00:55:22;;;;;;;83.80;23.52;;;;;;;;;;5075127;28;20705;-68
2023/02/12 00:57:49;;;;;;;86.85;23.50;;;;;;;;;;5075411;28;20215;-68
2023/02/12 01:00:17;;;;;;;85.47;24.92;;;;;;;;;;5075576;28;20235;-68
2023/02/12 01:02:44;;;;;;;88.15;24.42;;;;;;;;;;5075257;28;20212;-68
2023/02/12 01:05:11;;;;;;;83.45;21.70;;;;;;;;;;5075099;28;20221;-68
2023/02/12 01:07:39;;;;;;;86.93;24.30;;;;;;;;;;5074998;28;20213;-68
2023/02/12 01:10:08;;;;;;;92.32;25.02;;;;;;;;;;5074612;28;20212;-68
2023/02/12 01:12:36;;;;;;;86.13;24.33;;;;;;;;;;5075058;28;20209;-68
2023/02/12 01:15:03;;;;;;;85.80;23.23;;;;;;;;;;5074763;28;20717;-68
2023/02/12 01:17:30;;;;;;;86.68;24.75;;;;;;;;;;5074913;28;20209;-68
2023/02/12 01:19:58;;;;;;;88.57;23.95;;;;;;;;;;5074474;28;20225;-68
2023/02/12 01:22:25;;;;;;;87.15;24.77;;;;;;;;;;5075045;28;20205;-69
2023/02/12 01:24:52;;;;;;;86.40;25.33;;;;;;;;;;5074387;28;20617;-68
2023/02/12 01:27:20;;;;;;;85.28;23.52;;;;;;;;;;5074785;28;20209;-68
2023/02/12 01:29:47;;;;;;;85.43;23.25;;;;;;;;;;5074451;28;20212;-68
2023/02/12 01:32:14;;;;;;;89.32;25.35;;;;;;;;;;5074742;28;20571;-68
2023/02/12 01:34:42;;;;;;;86.53;23.85;;;;;;;;;;5074757;28;20229;-68
2023/02/12 01:37:09;;;;;;;85.75;23.88;;;;;;;;;;5074521;28;20212;-68
2023/02/12 01:39:36;;;;;;;83.05;24.42;;;;;;;;;;5073973;28;20302;-68
2023/02/12 01:42:04;;;;;;;83.13;22.53;;;;;;;;;;5074621;28;20205;-69
2023/02/12 01:44:34;;;;;;;85.30;23.02;;;;;;;;;;5074412;28;20561;-68
2023/02/12 01:47:02;;;;;;;90.70;25.77;;;;;;;;;;5074285;28;20244;-68
2023/02/12 01:49:32;;;;;;;89.30;25.08;;;;;;;;;;5073972;28;20216;-68
2023/02/12 01:52:01;;;;;;;92.65;26.45;;;;;;;;;;5074120;28;20580;-69
2023/02/12 01:54:28;;;;;;;84.57;23.48;;;;;;;;;;5074054;28;20229;-69
2023/02/12 01:56:56;;;;;;;83.97;24.45;;;;;;;;;;5074469;28;20209;-69
2023/02/12 01:59:24;;;;;;;88.28;25.42;;;;;;;;;;5073327;28;20215;-68
2023/02/12 02:01:52;;;;;;;87.63;24.95;;;;;;;;;;5074135;28;20235;-68
2023/02/12 02:04:22;;;;;;;88.35;24.52;;;;;;;;;;5073839;28;20251;-68
2023/02/12 02:06:52;;;;;;;85.47;25.20;;;;;;;;;;5074466;28;20205;-68
2023/02/12 02:09:19;;;;;;;88.35;24.75;;;;;;;;;;5073799;28;20205;-68
2023/02/12 02:14:34;;;;;;;87.95;23.30;;;;;;;;;;5073777;28;20219;-69
2023/02/12 02:17:10;;;;;;;92.07;24.67;;;;;;;;;;5073687;28;20665;-68
2023/02/12 02:19:51;;;;;;;84.82;25.52;;;;;;;;;;5073622;28;20481;-68
2023/02/12 02:22:25;;;;;;;86.63;23.55;;;;;;;;;;5073819;28;20204;-68
2023/02/12 02:25:15;;;;;;;87.32;25.45;;;;;;;;;;5073471;28;20739;-68
2023/02/12 02:27:48;;;;;;;90.13;25.10;;;;;;;;;;5073842;28;20554;-68
2023/02/12 02:30:23;;;;;;;92.68;25.75;;;;;;;;;;5073367;28;20215;-68
2023/02/12 02:32:58;;;;;;;86.13;25.48;;;;;;;;;;5073551;28;20205;-68
2023/02/12 02:35:28;;;;;;;90.85;24.90;;;;;;;;;;5073429;28;20228;-68
2023/02/12 02:37:59;;;;;;;90.05;26.88;;;;;;;;;;5073157;28;20213;-68
2023/02/12 02:40:27;;;;;;;95.55;27.83;;;;;;;;;;5072892;28;20227;-68
2023/02/12 02:42:55;;;;;;;88.70;26.13;;;;;;;;;;5073175;28;20705;-68
2023/02/12 02:45:27;;;;;;;89.82;26.92;;;;;;;;;;5073250;28;20229;-68
2023/02/12 02:47:56;;;;;;;87.82;27.45;;;;;;;;;;5073215;28;20209;-68
2023/02/12 02:50:25;;;;;;;93.85;28.90;;;;;;;;;;5071011;28;20198;-68
2023/02/12 02:52:53;;;;;;;93.40;26.92;;;;;;;;;;5073021;28;20208;-68
2023/02/12 02:55:22;;;;;;;87.43;24.70;;;;;;;;;;5072770;28;20701;-68
2023/02/12 02:57:54;;;;;;;88.65;25.70;;;;;;;;;;5072820;28;20681;-68
2023/02/12 03:00:23;;;;;;;89.15;27.10;;;;;;;;;;5072794;28;20252;-68
2023/02/12 03:02:53;;;;;;;93.15;27.77;;;;;;;;;;5072780;28;20212;-68
2023/02/12 03:05:23;;;;;;;87.30;25.35;;;;;;;;;;5072865;28;20282;-68
2023/02/12 03:07:52;;;;;;;92.45;26.38;;;;;;;;;;5072842;28;20209;-68
2023/02/12 03:10:20;;;;;;;88.53;24.80;;;;;;;;;;5072215;28;20205;-68
2023/02/12 03:12:50;;;;;;;90.07;26.05;;;;;;;;;;5072448;28;20586;-68
2023/02/12 03:15:20;;;;;;;88.88;26.70;;;;;;;;;;5072439;28;20735;-68
2023/02/12 03:17:48;;;;;;;91.00;26.73;;;;;;;;;;5072614;28;20209;-68
2023/02/12 03:20:19;;;;;;;89.32;25.20;;;;;;;;;;5072148;28;20209;-68
2023/02/12 03:22:48;;;;;;;87.95;26.45;;;;;;;;;;5072429;28;20209;-68
2023/02/12 03:25:16;;;;;;;91.55;25.83;;;;;;;;;;5072282;28;20229;-68
2023/02/12 03:27:45;;;;;;;88.35;24.75;;;;;;;;;;5072505;28;20216;-68
2023/02/12 03:30:13;;;;;;;88.50;26.13;;;;;;;;;;5072212;28;20221;-68
2023/02/12 03:32:45;;;;;;;93.70;27.50;;;;;;;;;;5072215;28;20205;-68
2023/02/12 03:35:15;;;;;;;87.18;26.23;;;;;;;;;;5072070;28;20221;-68
2023/02/12 03:37:47;;;;;;;87.57;25.80;;;;;;;;;;5072171;28;20670;-68
2023/02/12 03:40:17;;;;;;;89.15;24.92;;;;;;;;;;5071683;28;20209;-68
2023/02/12 03:42:46;;;;;;;92.03;25.98;;;;;;;;;;5072058;28;20212;-68
2023/02/12 03:45:20;;;;;;;96.57;26.25;;;;;;;;;;5072005;28;20301;-68
2023/02/12 03:47:49;;;;;;;90.10;26.95;;;;;;;;;;5071885;28;20201;-68
2023/02/12 03:50:17;;;;;;;95.03;25.23;;;;;;;;;;5071856;28;20205;-68
2023/02/12 03:52:46;;;;;;;86.20;24.45;;;;;;;;;;5071861;28;20212;-68
2023/02/12 03:55:14;;;;;;;84.05;23.77;;;;;;;;;;5072360;28;20567;-68
2023/02/12 03:57:42;;;;;;;91.35;25.23;;;;;;;;;;5071958;28;20210;-68
2023/02/12 04:00:11;;;;;;;88.57;25.55;;;;;;;;;;5071411;28;20209;-68
2023/02/12 04:02:38;;;;;;;86.88;24.58;;;;;;;;;;5071978;28;20590;-68
2023/02/12 04:05:06;;;;;;;91.03;26.05;;;;;;;;;;5071881;28;20233;-68
2023/02/12 04:07:33;;;;;;;89.50;26.67;;;;;;;;;;5071859;28;20579;-68
2023/02/12 04:10:01;;;;;;;85.53;25.27;;;;;;;;;;5071574;28;20424;-68
2023/02/12 04:12:34;;;;;;;86.07;25.08;;;;;;;;;;5071648;28;20200;-68
2023/02/12 04:15:07;;;;;;;86.40;25.67;;;;;;;;;;5071860;28;20709;-68
2023/02/12 04:17:39;;;;;;;90.65;25.70;;;;;;;;;;5071799;28;20205;-68
2023/02/12 04:20:11;;;;;;;87.30;24.95;;;;;;;;;;5071364;28;20209;-68
2023/02/12 04:22:44;;;;;;;88.03;26.33;;;;;;;;;;5071373;28;20227;-68
2023/02/12 04:25:17;;;;;;;92.85;26.45;;;;;;;;;;5071528;28;20286;-68
2023/02/12 04:27:47;;;;;;;88.82;25.73;;;;;;;;;;5071630;28;20700;-68
2023/02/12 04:30:19;;;;;;;84.45;25.40;;;;;;;;;;5071397;28;20217;-68
2023/02/12 04:32:48;;;;;;;86.72;26.05;;;;;;;;;;5071640;28;20201;-68
2023/02/12 04:35:20;;;;;;;88.28;25.85;;;;;;;;;;5071694;28;20237;-68
2023/02/12 04:37:50;;;;;;;90.30;26.92;;;;;;;;;;5071344;28;20678;-68
2023/02/12 04:40:20;;;;;;;91.07;25.20;;;;;;;;;;5071232;28;20216;-69
2023/02/12 04:42:48;;;;;;;91.82;27.52;;;;;;;;;;5071291;28;20228;-68
2023/02/12 04:45:17;;;;;;;87.22;25.80;;;;;;;;;;5071408;28;20225;-68
2023/02/12 04:47:44;;;;;;;91.78;26.20;;;;;;;;;;5071446;28;20205;-68
2023/02/12 04:50:11;;;;;;;90.32;25.38;;;;;;;;;;5070962;28;20560;-68
2023/02/12 04:52:38;;;;;;;86.95;24.40;;;;;;;;;;5071269;28;20606;-68
2023/02/12 04:55:06;;;;;;;90.22;26.95;;;;;;;;;;5071140;28;20221;-68
2023/02/12 04:57:34;;;;;;;90.15;25.42;;;;;;;;;;5071443;28;20580;-68
2023/02/12 05:00:01;;;;;;;87.00;24.77;;;;;;;;;;5071058;28;20201;-68
2023/02/12 05:02:28;;;;;;;87.70;25.50;;;;;;;;;;5071148;28;20228;-68
2023/02/12 05:04:56;;;;;;;89.05;25.55;;;;;;;;;;5071030;28;20732;-68
2023/02/12 05:07:23;;;;;;;87.97;26.58;;;;;;;;;;5071318;28;20201;-68
2023/02/12 05:09:50;;;;;;;89.63;26.02;;;;;;;;;;5071038;28;20596;-68
2023/02/12 05:12:17;;;;;;;86.43;24.63;;;;;;;;;;5071321;28;20203;-68
2023/02/12 05:14:45;;;;;;;89.35;25.35;;;;;;;;;;5071002;28;20696;-69
2023/02/12 05:17:12;;;;;;;88.63;25.85;;;;;;;;;;5071041;28;20205;-68
2023/02/12 05:19:40;;;;;;;91.20;27.20;;;;;;;;;;5070900;28;20679;-68
2023/02/12 05:22:07;;;;;;;88.45;26.38;;;;;;;;;;5071075;28;20489;-69
2023/02/12 05:24:34;;;;;;;89.88;26.45;;;;;;;;;;5070807;28;20785;-69
2023/02/12 05:27:01;;;;;;;85.97;25.40;;;;;;;;;;5071433;28;20209;-68
2023/02/12 05:29:28;;;;;;;91.28;25.75;;;;;;;;;;5070703;28;20205;-68
2023/02/12 05:31:56;;;;;;;88.82;26.52;;;;;;;;;;5070856;28;20228;-68
2023/02/12 05:34:23;;;;;;;91.57;27.42;;;;;;;;;;5071943;28;20229;-69
2023/02/12 05:36:51;;;;;;;90.63;25.95;;;;;;;;;;5074696;28;20596;-68
2023/02/12 05:39:18;;;;;;;90.55;26.70;;;;;;;;;;5074330;28;20205;-68
2023/02/12 05:41:45;;;;;;;88.95;27.00;;;;;;;;;;5074318;28;20232;-69
2023/02/12 05:44:13;;;;;;;89.10;25.38;;;;;;;;;;5074116;28;20232;-68
2023/02/12 05:46:41;;;;;;;88.75;26.40;;;;;;;;;;5074363;28;20219;-68
2023/02/12 05:49:09;;;;;;;86.90;25.42;;;;;;;;;;5074248;28;20204;-68
2023/02/12 05:51:37;;;;;;;90.20;25.67;;;;;;;;;;5074202;28;20212;-68
2023/02/12 05:54:05;;;;;;;88.28;26.58;;;;;;;;;;5074355;28;20221;-69
2023/02/12 05:56:34;;;;;;;87.72;25.75;;;;;;;;;;5074225;28;20202;-69
2023/02/12 06:02:05;;;;;;;90.80;26.23;;;;;;;;;;5072882;28;20842;-69
2023/02/12 06:04:33;;;;;;;91.38;25.40;;;;;;;;;;5074004;28;20221;-69
2023/02/12 06:07:01;;;;;;;86.35;24.83;;;;;;;;;;5073985;28;20252;-69
2023/02/12 06:09:28;;;;;;;86.88;24.95;;;;;;;;;;5073915;28;20201;-69
2023/02/12 06:11:55;;;;;;;87.93;24.90;;;;;;;;;;5073903;28;20205;-69
2023/02/12 06:14:22;;;;;;;99.78;28.25;;;;;;;;;;5073801;28;20624;-69
2023/02/12 06:16:50;;;;;;;90.15;27.30;;;;;;;;;;5073795;28;20205;-69
2023/02/12 06:19:18;;;;;;;87.53;25.85;;;;;;;;;;5073419;28;20673;-69
2023/02/12 06:21:47;;;;;;;88.00;25.42;;;;;;;;;;5073815;28;20229;-69
2023/02/12 06:24:15;;;;;;;92.55;26.83;;;;;;;;;;5073505;28;20229;-69
2023/02/12 06:26:43;;;;;;;86.65;24.42;;;;;;;;;;5073684;28;20293;-69
2023/02/12 06:29:12;;;;;;;89.22;26.38;;;;;;;;;;5073444;28;20584;-69
2023/02/12 06:31:39;;;;;;;89.97;26.77;;;;;;;;;;5073462;28;20234;-69
2023/02/12 06:34:07;;;;;;;88.68;26.65;;;;;;;;;;5073630;28;20709;-69
2023/02/12 06:36:34;;;;;;;89.88;24.27;;;;;;;;;;5073343;28;20677;-69
2023/02/12 06:39:03;;;;;;;88.00;25.45;;;;;;;;;;5073209;28;20234;-66
2023/02/12 06:41:30;;;;;;;88.30;25.15;;;;;;;;;;5073328;28;20229;-67
2023/02/12 06:43:57;;;;;;;88.05;25.05;;;;;;;;;;5073143;28;20221;-68
2023/02/12 06:46:24;;;;;;;91.47;27.63;;;;;;;;;;5073028;28;20205;-67
2023/02/12 06:48:54;;;;;;;90.95;24.42;;;;;;;;;;5073042;28;20209;-67
2023/02/12 06:51:22;;;;;;;88.47;26.33;;;;;;;;;;5073084;28;20209;-67
2023/02/12 06:53:49;;;;;;;90.40;27.00;;;;;;;;;;5073038;28;20705;-67
2023/02/12 06:56:18;;;;;;;90.82;26.55;;;;;;;;;;5073036;28;20227;-67
2023/02/12 06:58:46;;;;;;;89.18;25.73;;;;;;;;;;5072639;28;20670;-67
2023/02/12 07:01:16;;;;;;;88.85;24.15;;;;;;;;;;5073068;28;20250;-67
2023/02/12 07:03:44;;;;;;;94.10;27.73;;;;;;;;;;5072852;28;20680;-67
2023/02/12 07:06:11;;;;;;;96.15;28.40;;;;;;;;;;5072802;28;20205;-67
2023/02/12 07:08:38;;;;;;;89.40;26.15;;;;;;;;;;5072489;28;20205;-67
2023/02/12 07:11:06;;;;;;;87.93;26.10;;;;;;;;;;5072763;28;20201;-68
2023/02/12 07:13:35;;;;;;;84.93;26.00;;;;;;;;;;5072467;28;20201;-67
2023/02/12 07:16:06;;;;;;;89.60;25.80;;;;;;;;;;5072548;28;20296;-67
2023/02/12 07:18:33;;;;;;;90.53;25.85;;;;;;;;;;5072278;28;20693;-67
2023/02/12 07:21:01;;;;;;;88.78;25.75;;;;;;;;;;5072746;28;20201;-68
2023/02/12 07:23:28;;;;;;;88.63;25.33;;;;;;;;;;5072179;28;20227;-68
2023/02/12 07:25:56;;;;;;;86.03;25.05;;;;;;;;;;5072303;28;20208;-68
2023/02/12 07:28:23;;;;;;;84.10;24.20;;;;;;;;;;5072234;28;20588;-68
2023/02/12 07:30:51;;;;;;;91.32;26.98;;;;;;;;;;5071912;28;20451;-68
2023/02/12 07:33:18;;;;;;;90.15;24.80;;;;;;;;;;5072344;28;20227;-68
2023/02/12 07:35:46;;;;;;;89.60;25.50;;;;;;;;;;5072090;28;20229;-68
2023/02/12 07:38:13;;;;;;;88.33;24.77;;;;;;;;;;5072142;28;20239;-68
2023/02/12 07:40:40;;;;;;;94.75;27.25;;;;;;;;;;5071693;28;20982;-68
2023/02/12 07:43:07;;;;;;;84.93;25.85;;;;;;;;;;5072032;28;20229;-68
2023/02/12 07:45:34;;;;;;;88.47;27.00;;;;;;;;;;5072130;28;20227;-68
2023/02/12 07:48:03;;;;;;;86.43;25.23;;;;;;;;;;5071619;28;20205;-68
2023/02/12 07:50:30;;;;;;;87.50;24.20;;;;;;;;;;5071864;28;20200;-68
2023/02/12 07:52:57;;;;;;;91.05;27.33;;;;;;;;;;5072330;28;20205;-68
2023/02/12 07:55:24;;;;;;;87.10;25.63;;;;;;;;;;5071810;28;20229;-68
2023/02/12 07:57:52;;;;;;;87.65;25.48;;;;;;;;;;5071635;28;20663;-68
2023/02/12 08:00:19;;;;;;;91.80;25.52;;;;;;;;;;5071790;28;20205;-68
2023/02/12 08:02:51;;;;;;;87.45;25.25;;;;;;;;;;5071797;28;20612;-68
2023/02/12 08:05:20;;;;;;;88.87;27.10;;;;;;;;;;5071735;28;20282;-68
2023/02/12 08:07:47;;;;;;;89.67;25.50;;;;;;;;;;5071641;28;20458;-68
2023/02/12 08:10:14;;;;;;;89.10;25.60;;;;;;;;;;5071749;28;20447;-68
2023/02/12 08:12:41;;;;;;;89.88;26.67;;;;;;;;;;5071977;28;20447;-68
2023/02/12 08:15:09;;;;;;;86.47;25.52;;;;;;;;;;5071592;28;20747;-68
2023/02/12 08:17:36;;;;;;;88.53;25.97;;;;;;;;;;5072108;28;20209;-68
2023/02/12 08:20:04;;;;;;;89.37;26.20;;;;;;;;;;5071355;28;20487;-68
2023/02/12 08:22:32;;;;;;;88.13;25.67;;;;;;;;;;5071549;28;20482;-68
2023/02/12 08:24:59;;;;;;;91.97;27.50;;;;;;;;;;5071708;28;20840;-68
2023/02/12 08:27:26;;;;;;;88.87;26.90;;;;;;;;;;5071653;28;20450;-68
2023/02/12 08:29:53;;;;;;;89.70;26.70;;;;;;;;;;5071307;28;20450;-68
2023/02/12 08:32:20;;;;;;;88.70;26.63;;;;;;;;;;5071465;28;20447;-68
2023/02/12 08:34:47;;;;;;;90.60;26.17;;;;;;;;;;5071345;28;20231;-68
2023/02/12 08:37:14;;;;;;;93.10;28.55;;;;;;;;;;5071417;28;20455;-68
2023/02/12 08:39:43;;;;;;;89.23;27.03;;;;;;;;;;5071219;28;20236;-68
2023/02/12 08:42:10;;;;;;;88.33;26.80;;;;;;;;;;5071450;28;20486;-68
2023/02/12 08:44:39;;;;;;;96.27;31.10;;;;;;;;;;5071364;28;20470;-68
2023/02/12 08:47:06;;;;;;;92.87;28.40;;;;;;;;;;5071316;28;20455;-68
2023/02/12 08:49:33;;;;;;;87.67;26.20;;;;;;;;;;5071177;28;20819;-68
2023/02/12 08:52:01;;;;;;;89.70;27.17;;;;;;;;;;5071610;28;20443;-67
2023/02/12 08:54:29;;;;;;;97.53;28.53;;;;;;;;;;5071277;28;20471;-68
2023/02/12 08:56:58;;;;;;;94.70;29.67;;;;;;;;;;5071210;28;20653;-68
2023/02/12 08:59:25;;;;;;;94.30;29.00;;;;;;;;;;5071045;28;20476;-68
2023/02/12 09:01:53;;;;;;;92.23;28.83;;;;;;;;;;5071130;28;20454;-68
2023/02/12 09:04:21;;;;;;;94.00;29.50;;;;;;;;;;5071371;28;20524;-68
2023/02/12 09:06:49;;;;;;;93.40;29.70;;;;;;;;;;5071435;28;20822;-68
2023/02/12 09:09:16;;;;;;;96.00;29.27;;;;;;;;;;5072287;28;20454;-68
2023/02/12 09:11:44;;;;;;;91.67;29.10;;;;;;;;;;5074928;28;20457;-68
2023/02/12 09:14:14;;;;;;;98.40;30.93;;;;;;;;;;5074873;28;20465;-68
2023/02/12 09:16:41;;;;;;;96.20;30.80;;;;;;;;;;5074745;28;20939;-68
2023/02/12 09:19:09;;;;;;;92.43;28.97;;;;;;;;;;5074756;28;20446;-68
2023/02/12 09:21:36;;;;;;;96.67;30.63;;;;;;;;;;5074913;28;20446;-68
2023/02/12 09:24:03;;;;;;;102.10;30.93;;;;;;;;;;5074573;28;20495;-68
2023/02/12 09:26:30;;;;;;;97.47;30.80;;;;;;;;;;5074800;28;20447;-68
2023/02/12 09:28:58;;;;;;;94.17;31.30;;;;;;;;;;5074208;28;20443;-68
2023/02/12 09:31:28;;;;;;;99.20;33.37;;;;;;;;;;5074768;28;20443;-68
2023/02/12 09:33:55;;;;;;;94.07;31.40;;;;;;;;;;5074588;28;20463;-68
2023/02/12 09:36:22;;;;;;;96.13;30.20;;;;;;;;;;5074684;28;20459;-68
2023/02/12 09:38:49;;;;;;;90.67;29.80;;;;;;;;;;5074160;28;20826;-68
2023/02/12 09:41:25;;;;;;;94.10;31.63;;;;;;;;;;5074394;28;20537;-68
2023/02/12 09:43:54;;;;;;;92.83;30.50;;;;;;;;;;5074563;28;20490;-68
2023/02/12 09:46:25;;;;;;;91.23;29.47;;;;;;;;;;5075011;28;20439;-68
2023/02/12 09:48:57;;;;;;;92.27;29.37;;;;;;;;;;5074078;28;20457;-69
2023/02/12 09:51:25;;;;;;;95.37;30.47;;;;;;;;;;5074454;28;20454;-68
2023/02/12 09:53:56;;;;;;;92.00;29.83;;;;;;;;;;5074091;28;20463;-68
2023/02/12 09:56:25;;;;;;;90.90;29.80;;;;;;;;;;5074335;28;20454;-68
2023/02/12 09:58:54;;;;;;;94.80;30.87;;;;;;;;;;5073734;28;20952;-68
2023/02/12 10:01:22;;;;;;;92.60;30.27;;;;;;;;;;5074110;28;20447;-69
2023/02/12 10:03:50;;;;;;;94.30;28.70;;;;;;;;;;5073891;28;20483;-68
2023/02/12 10:06:20;;;;;;;91.80;29.07;;;;;;;;;;5074004;28;20819;-68
2023/02/12 10:08:53;;;;;;;86.70;27.70;;;;;;;;;;5073734;28;20443;-68
2023/02/12 10:11:25;;;;;;;90.87;30.23;;;;;;;;;;5074053;28;20454;-68
2023/02/12 10:13:55;;;;;;;89.37;29.43;;;;;;;;;;5073876;28;20837;-68
2023/02/12 10:16:29;;;;;;;97.90;30.50;;;;;;;;;;5073853;28;20458;-69
2023/02/12 10:19:06;;;;;;;93.97;28.83;;;;;;;;;;5073544;28;20452;-69
2023/02/12 10:21:45;;;;;;;91.17;28.10;;;;;;;;;;5073428;28;20451;-69
2023/02/12 10:24:22;;;;;;;81.97;22.07;;;;;;;;;;5073434;28;20491;-68
2023/02/12 10:26:50;;;;;;;81.07;23.30;;;;;;;;;;5073977;28;20447;-68
2023/02/12 10:29:19;;;;;;;81.10;21.90;;;;;;;;;;5073103;28;20447;-69
2023/02/12 10:31:47;;;;;;;82.00;17.67;;;;;;;;;;5073812;28;20454;-68
2023/02/12 10:34:17;;;;;;;78.27;15.27;;;;;;;;;;5073735;28;20470;-69
2023/02/12 10:36:46;;;;;;;99.90;21.80;;;;;;;;;;5073783;28;20828;-69
2023/02/12 10:39:15;;;;;;;68.17;9.90;;;;;;;;;;5073314;28;20458;-68
2023/02/12 10:41:45;;;;;;;69.47;11.70;;;;;;;;;;5073296;28;20819;-68
2023/02/12 10:44:12;;;;;;;69.40;11.60;;;;;;;;;;5073026;28;20497;-68
2023/02/12 10:46:40;;;;;;;65.13;10.33;;;;;;;;;;5073494;28;20506;-68
2023/02/12 10:49:08;;;;;;;68.07;9.40;;;;;;;;;;5072930;28;20469;-68
2023/02/12 10:51:50;;;;;;;68.17;9.60;;;;;;;;;;5073162;28;20534;-68
2023/02/12 10:54:35;;;;;;;64.60;8.13;;;;;;;;;;5072915;28;20877;-68
2023/02/12 10:57:08;;;;;;;70.50;12.27;;;;;;;;;;5063014;28;20465;-68
2023/02/12 10:59:35;;;;;;;71.00;10.40;;;;;;;;;;5072669;28;20471;-68
2023/02/12 11:02:03;;;;;;;65.40;8.20;;;;;;;;;;5072932;28;20447;-69
2023/02/12 11:04:32;;;;;;;64.87;8.30;;;;;;;;;;5072663;28;20489;-69
2023/02/12 11:07:02;;;;;;;65.40;8.40;;;;;;;;;;5072687;28;20451;-69
2023/02/12 11:09:30;;;;;;;65.13;7.70;;;;;;;;;;5072591;28;20447;-69
2023/02/12 11:11:57;;;;;;;61.00;5.87;;;;;;;;;;5072889;28;20457;-69
2023/02/12 11:14:24;;;;;;;62.57;7.30;;;;;;;;;;5072493;28;20999;-69
2023/02/12 11:16:53;;;;;;;62.17;6.37;;;;;;;;;;5072685;28;20807;-69
2023/02/12 11:19:21;;;;;;;61.97;6.47;;;;;;;;;;5072188;28;20451;-69
2023/02/12 11:21:48;;;;;;;61.70;6.20;;;;;;;;;;5072916;28;20447;-69
2023/02/12 11:24:23;;;;;;;66.37;7.47;;;;;;;;;;5072589;28;21049;-69
2023/02/12 11:26:50;;;;;;;61.87;7.07;;;;;;;;;;5072798;28;20453;-69
2023/02/12 11:29:19;;;;;;;63.23;7.80;;;;;;;;;;5072412;28;20446;-68
2023/02/12 11:31:59;;;;;;;64.53;8.17;;;;;;;;;;5071700;28;20966;-68
2023/02/12 11:34:26;;;;;;;66.67;7.67;;;;;;;;;;5072855;28;20467;-68
2023/02/12 11:36:54;;;;;;;67.87;8.53;;;;;;;;;;5072466;28;20974;-68
2023/02/12 11:39:23;;;;;;;64.67;9.20;;;;;;;;;;5071996;28;20462;-68
2023/02/12 11:41:53;;;;;;;66.10;9.30;;;;;;;;;;5072297;28;20471;-68
2023/02/12 11:44:21;;;;;;;64.83;8.43;;;;;;;;;;5072116;28;20544;-69
2023/02/12 11:46:49;;;;;;;64.27;9.20;;;;;;;;;;5072245;28;20944;-68
2023/02/12 11:49:19;;;;;;;63.53;8.30;;;;;;;;;;5071870;28;20542;-68
2023/02/12 11:51:48;;;;;;;63.97;7.93;;;;;;;;;;5072065;28;20453;-68
2023/02/12 11:54:18;;;;;;;66.57;9.17;;;;;;;;;;5071835;28;20474;-68
2023/02/12 11:56:46;;;;;;;63.00;7.50;;;;;;;;;;5071830;28;20939;-69
2023/02/12 11:59:25;;;;;;;64.80;8.37;;;;;;;;;;5071713;28;20455;-69
2023/02/12 12:01:54;;;;;;;61.07;6.80;;;;;;;;;;5072471;28;20449;-69
2023/02/12 12:04:23;;;;;;;62.20;7.03;;;;;;;;;;5071892;28;20491;-69
2023/02/12 12:06:52;;;;;;;63.07;7.50;;;;;;;;;;5072179;28;20446;-69
2023/02/12 12:09:23;;;;;;;62.50;6.60;;;;;;;;;;5071765;28;20943;-69
2023/02/12 12:11:58;;;;;;;62.40;7.40;;;;;;;;;;5072014;28;20485;-69
2023/02/12 12:14:29;;;;;;;62.27;6.67;;;;;;;;;;5072036;28;20751;-69
2023/02/12 12:19:52;;;;;;;63.17;7.50;;;;;;;;;;5071295;28;20500;-69
2023/02/12 12:22:24;;;;;;;63.63;7.50;;;;;;;;;;5071967;28;20810;-69
2023/02/12 12:24:54;;;;;;;62.90;7.50;;;;;;;;;;5071487;28;20499;-69
2023/02/12 12:30:11;;;;;;;61.70;6.83;;;;;;;;;;5070771;28;20802;-69
2023/02/12 12:32:40;;;;;;;61.73;6.83;;;;;;;;;;5071748;28;20444;-70
2023/02/12 12:35:09;;;;;;;63.17;7.50;;;;;;;;;;5071686;28;20455;-70
2023/02/12 12:37:42;;;;;;;60.50;5.73;;;;;;;;;;5071685;28;20443;-69
2023/02/12 12:40:21;;;;;;;61.17;6.13;;;;;;;;;;5071203;28;20457;-70
2023/02/12 12:42:56;;;;;;;64.40;6.20;;;;;;;;;;5071609;28;20444;-70
2023/02/12 12:45:35;;;;;;;61.90;7.57;;;;;;;;;;5075844;28;20483;-69
2023/02/12 12:48:08;;;;;;;60.57;5.67;;;;;;;;;;5075841;28;20453;-67
2023/02/12 12:50:39;;;;;;;61.43;5.90;;;;;;;;;;5075241;28;20447;-68
2023/02/12 12:53:19;;;;;;;59.97;5.50;;;;;;;;;;5075408;28;20473;-68
2023/02/12 12:56:01;;;;;;;61.77;7.33;;;;;;;;;;5075648;28;20477;-68
2023/02/12 12:58:36;;;;;;;62.40;7.63;;;;;;;;;;5075514;28;20447;-68
2023/02/12 13:01:15;;;;;;;61.37;6.30;;;;;;;;;;5075671;28;20807;-68
2023/02/12 13:03:51;;;;;;;62.20;6.50;;;;;;;;;;5075169;28;20487;-68
2023/02/12 13:06:36;;;;;;;60.70;6.10;;;;;;;;;;5075751;28;20446;-69
2023/02/12 13:09:11;;;;;;;61.67;6.80;;;;;;;;;;5075077;28;20450;-68
2023/02/12 13:11:41;;;;;;;62.67;6.63;;;;;;;;;;5075130;28;20455;-69
2023/02/12 13:14:24;;;;;;;61.20;6.40;;;;;;;;;;5074844;28;20459;-69
2023/02/12 13:17:00;;;;;;;61.40;6.33;;;12.10;1.00;;;;;;5075254;28;20450;-69
2023/02/12 13:19:33;;;;;;;61.27;6.57;;;;;;;;;;5074835;28;20954;-69
2023/02/12 13:22:08;;;;;;;63.20;6.67;;;23.30;99.90;;;;;;5074888;28;20451;-69
2023/02/12 13:24:43;;;;;;;62.20;6.93;;;24.20;99.90;;;;;;5074637;28;20868;-69
2023/02/12 13:27:14;;;;;;;61.97;7.03;;;25.20;99.90;;;;;;5074957;28;20827;-69
2023/02/12 13:29:46;;;;;;;60.77;6.13;;;24.60;99.90;;;;;;5074435;28;20447;-70
2023/02/12 13:32:21;;;;;;;61.20;5.73;;;26.00;99.90;;;;;;5074717;28;20452;-69
2023/02/12 13:34:50;;;;;;;62.10;5.97;;;24.50;99.90;;;;;;5074428;28;20471;-69
2023/02/12 13:37:21;;;;;;;62.10;6.67;;;23.10;99.90;;;;;;5074332;28;20457;-69
2023/02/12 13:39:50;;;;;;;61.30;6.10;;;21.80;99.90;;;;;;5074320;28;20455;-69
2023/02/12 13:42:41;;;;;;;62.47;6.53;;;21.30;99.90;;;;;;5074755;28;20826;-70
2023/02/12 13:45:36;;;;;;;63.20;7.13;;;22.60;99.90;;;;;;5073991;28;20487;-70
2023/02/12 13:48:24;;;;;;;61.10;6.33;;;21.20;99.90;;;;;;5074273;28;20458;-69
2023/02/12 13:50:57;;;;;;;61.10;5.60;;;21.80;99.90;;;;;;5074143;28;20440;-69
2023/02/12 13:53:30;;;;;;;60.87;5.80;;;22.10;99.90;;;;;;5074286;28;20440;-69
2023/02/12 13:56:07;;;;;;;61.07;5.40;;;22.10;99.90;;;;;;5073758;28;20451;-69
2023/02/12 13:58:59;;;;;;;59.70;4.80;;;22.80;99.90;;;;;;5073970;28;20997;-69
2023/02/12 14:01:37;;;;;;;59.90;5.00;;;;;;;;;;5070985;28;20463;-69
2023/02/12 14:04:15;;;;;;;61.00;5.20;;;;;;;;;;5073862;28;20497;-63
2023/02/12 14:06:52;;;;;;;59.27;4.67;;;;;;;;;;5074127;28;20447;-63
2023/02/12 14:09:22;;;;;;;59.10;4.70;;;;;;;;;;5073777;28;20451;-63
2023/02/12 14:11:51;;;;;;;59.40;4.50;;;;;;;;;;5074267;28;20459;-63
2023/02/12 14:14:25;;;;;;;59.77;4.83;;;;;;;;;;5073679;28;20478;-63
2023/02/12 14:16:53;;;;;;;58.47;4.13;;;20.20;99.90;;;;;;5074066;28;20447;-63
2023/02/12 14:19:53;;;;;;;58.97;4.30;;;;;;;;;;5073537;28;20451;-63
2023/02/12 14:22:58;;;;;;;59.30;4.60;;;19.40;99.90;;;;;;5011849;28;20461;-63
2023/02/12 14:25:42;;;;;;;58.80;4.57;;;18.90;99.90;;;;;;5011624;28;20501;-63
2023/02/12 14:28:24;;;;;;;59.13;4.63;;;17.20;99.90;;;;;;5011564;28;20457;-63
2023/02/12 14:31:21;;;;;;;59.30;4.67;;;19.10;99.90;;;;;;5011349;28;20553;-63
2023/02/12 14:33:52;;;;;;;58.53;3.97;;;18.10;99.90;;;;;;5011538;28;20477;-63
2023/02/12 14:36:39;;;;;;;62.17;4.60;;;17.00;99.90;;;;;;5011505;28;20472;-63
2023/02/12 14:39:26;;;;;;;58.60;4.13;;;;;;;;;;5011182;28;20450;-63